Time;durP1;ratioP1;P1;durP2;ratioP2;P2;SDS_P1;SDS_P2;PMS_P1;PMS_P2;Temp;Humidity;BMP_temperature;BMP_pressure;BME280_temperature;BME280_humidity;BME280_pressure;Samples;Min_cycle;Max_cycle;Signal;HPM_P1;HPM_P2
2024/01/21 00:00:09;;;;;;;1.70;1.00;;;;;;;4.85;33.10;101959.16;682249;28;1483;-86
2024/01/21 00:00:32;;;;;;;2.10;0.98;;;;;;;4.83;32.77;101960.75;679775;29;964;-86
2024/01/21 00:00:52;;;;;;;2.00;0.80;;;;;;;4.81;32.64;101952.84;677347;29;1365;-86
2024/01/21 00:01:13;;;;;;;0.60;0.60;;;;;;;4.79;33.06;101949.28;677127;29;1563;-86
2024/01/21 00:01:34;;;;;;;0.60;0.50;;;;;;;4.80;32.69;101956.25;677164;29;1594;-86
2024/01/21 00:01:55;;;;;;;0.80;0.70;;;;;;;4.83;32.98;101966.78;677441;29;1203;-87
2024/01/21 00:03:58;;;;;;;0.60;0.52;;;;;;;4.89;32.80;101940.44;680091;29;812;-87
2024/01/21 00:04:18;;;;;;;0.60;0.60;;;;;;;4.93;33.01;101951.13;686563;28;1102;-86
2024/01/21 00:04:39;;;;;;;0.80;0.70;;;;;;;4.93;32.61;101953.72;685467;28;840;-87
2024/01/21 00:05:00;;;;;;;0.80;0.70;;;;;;;4.97;32.46;101953.94;685172;28;1297;-86
2024/01/21 00:05:21;;;;;;;0.77;0.65;;;;;;;4.97;32.69;101954.81;682381;28;1327;-86
2024/01/21 00:05:41;;;;;;;0.60;0.50;;;;;;;4.95;32.47;101950.34;679906;29;852;-86
2024/01/21 00:06:03;;;;;;;0.60;0.50;;;;;;;4.89;32.32;101936.19;677413;29;1030;-86
2024/01/21 00:06:23;;;;;;;0.60;0.50;;;;;;;4.95;32.21;101942.59;677023;29;1266;-87
2024/01/21 00:06:44;;;;;;;0.60;0.50;;;;;;;4.93;32.00;101933.00;682546;29;1329;-87
2024/01/21 00:07:04;;;;;;;0.70;0.70;;;;;;;5.03;31.97;101946.63;677140;29;1068;-86
2024/01/21 00:07:25;;;;;;;0.70;0.70;;;;;;;4.97;32.23;101936.72;677405;29;967;-87
2024/01/21 00:07:46;;;;;;;1.05;0.90;;;;;;;4.96;31.82;101936.63;671705;29;1218;-87
2024/01/21 00:08:06;;;;;;;1.50;0.97;;;;;;;5.00;32.09;101939.53;676868;29;1315;-87
2024/01/21 00:08:27;;;;;;;1.50;1.00;;;;;;;5.02;32.18;101937.03;674772;29;971;-87
2024/01/21 00:08:48;;;;;;;1.10;0.90;;;;;;;5.02;32.20;101937.03;677358;29;1339;-87
2024/01/21 00:09:08;;;;;;;0.60;0.60;;;;;;;5.08;31.94;101937.47;676996;29;1189;-87
2024/01/21 00:09:29;;;;;;;0.60;0.50;;;;;;;5.07;32.30;101940.84;677323;29;1116;-87
2024/01/21 00:09:49;;;;;;;0.60;0.50;;;;;;;5.07;32.33;101938.25;677750;29;1316;-87
2024/01/21 00:10:10;;;;;;;0.60;0.50;;;;;;;5.10;32.18;101930.72;674969;29;1288;-87
2024/01/21 00:10:30;;;;;;;0.60;0.50;;;;;;;5.10;32.14;101930.72;675465;29;1281;-86
2024/01/21 00:10:51;;;;;;;0.60;0.50;;;;;;;5.17;32.14;101932.91;674438;29;843;-87
2024/01/21 00:11:11;;;;;;;0.80;0.60;;;;;;;5.16;32.47;101923.34;675756;29;1697;-85
2024/01/21 00:11:34;;;;;;;0.80;0.70;;;;;;;5.15;31.85;101926.75;677783;29;1180;-86
2024/01/21 00:11:55;;;;;;;0.80;0.80;;;;;;;5.14;31.49;101927.53;680460;29;1311;-87
2024/01/21 00:12:15;;;;;;;1.17;0.75;;;;;;;5.19;31.63;101928.75;680328;29;1033;-86
2024/01/21 00:12:36;;;;;;;1.20;0.70;;;;;;;5.25;31.42;101924.78;680441;29;1191;-87
2024/01/21 00:12:57;;;;;;;1.20;0.60;;;;;;;5.24;31.56;101928.16;680484;29;1198;-86
2024/01/21 00:13:18;;;;;;;0.60;0.55;;;;;;;5.18;31.47;101914.03;677479;29;1162;-87
2024/01/21 00:13:38;;;;;;;0.60;0.60;;;;;;;5.21;31.51;101921.09;677865;29;742;-87
2024/01/21 00:13:59;;;;;;;0.60;0.60;;;;;;;5.19;31.59;101915.81;677972;29;786;-86
2024/01/21 00:14:19;;;;;;;0.60;0.50;;;;;;;5.22;30.62;101919.41;679928;29;1289;-87
2024/01/21 00:14:40;;;;;;;1.10;0.70;;;;;;;5.25;31.25;101919.59;680805;29;1185;-88
2024/01/21 00:15:02;;;;;;;1.10;0.70;;;;;;;5.25;31.20;101917.00;681185;29;1968;-86
2024/01/21 00:15:23;;;;;;;1.10;0.70;;;;;;;5.24;30.97;101925.56;681086;29;1975;-86
2024/01/21 00:15:43;;;;;;;1.10;0.90;;;;;;;5.26;30.88;101911.94;680190;29;1719;-86
2024/01/21 00:16:04;;;;;;;1.10;0.90;;;;;;;5.26;31.05;101908.44;675653;29;1327;-87
2024/01/21 00:16:24;;;;;;;1.10;0.90;;;;;;;5.28;30.80;101915.53;673708;29;1444;-88
2024/01/21 00:16:45;;;;;;;0.60;0.50;;;;;;;5.29;30.44;101919.03;675287;29;813;-86
2024/01/21 00:17:07;;;;;;;1.60;1.10;;;;;;;5.36;31.08;101923.84;674955;29;1060;-86
2024/01/21 00:17:28;;;;;;;1.80;1.27;;;;;;;5.39;30.86;101920.56;675099;29;1406;-87
2024/01/21 00:17:49;;;;;;;1.48;1.20;;;;;;;5.40;31.53;101920.66;673726;29;993;-86
2024/01/21 00:18:09;;;;;;;1.10;1.00;;;;;;;5.38;31.51;101917.06;677710;29;1120;-87
2024/01/21 00:18:29;;;;;;;1.10;0.90;;;;;;;5.39;31.05;101917.97;675202;29;1287;-87
2024/01/21 00:18:50;;;;;;;1.00;0.70;;;;;;;5.40;31.51;101915.47;677774;29;1361;-87
2024/01/21 00:19:11;;;;;;;0.80;0.60;;;;;;;5.37;31.25;101910.09;678542;29;1281;-87
2024/01/21 00:19:31;;;;;;;0.60;0.50;;;;;;;5.40;31.70;101928.41;682723;28;1194;-86
2024/01/21 00:19:52;;;;;;;0.70;0.60;;;;;;;5.33;31.29;101916.75;677636;29;1418;-87
2024/01/21 00:20:13;;;;;;;0.70;0.60;;;;;;;5.34;31.25;101915.09;676097;29;1450;-87
2024/01/21 00:20:33;;;;;;;0.63;0.60;;;;;;;5.37;31.29;101917.88;675275;29;1401;-86
2024/01/21 00:20:54;;;;;;;0.97;0.80;;;;;;;5.39;31.41;101912.81;675208;29;1175;-87
2024/01/21 00:21:14;;;;;;;1.10;0.80;;;;;;;5.43;31.29;101914.78;673637;29;1262;-86
2024/01/21 00:21:35;;;;;;;1.20;1.00;;;;;;;5.43;31.16;101915.69;675049;29;1260;-87
2024/01/21 00:21:56;;;;;;;0.77;0.73;;;;;;;5.43;31.37;101907.03;677734;29;825;-87
2024/01/21 00:22:16;;;;;;;1.20;1.00;;;;;;;5.38;31.59;101906.72;677346;29;1332;-87
2024/01/21 00:22:38;;;;;;;1.10;0.80;;;;;;;5.46;31.43;101910.72;674913;29;1677;-87
2024/01/21 00:22:59;;;;;;;1.10;0.80;;;;;;;5.46;31.60;101915.88;676527;29;1552;-86
2024/01/21 00:23:20;;;;;;;0.70;0.60;;;;;;;5.43;31.52;101905.34;677553;29;1112;-88
2024/01/21 00:23:40;;;;;;;0.73;0.70;;;;;;;5.46;31.58;101910.72;677809;29;1140;-87
2024/01/21 00:24:01;;;;;;;0.70;0.60;;;;;;;5.42;31.39;101908.72;677557;29;1379;-87
2024/01/21 00:24:22;;;;;;;0.70;0.60;;;;;;;5.45;31.56;101903.75;677726;29;1212;-87
2024/01/21 00:24:42;;;;;;;1.70;0.90;;;;;;;5.39;31.41;101913.69;677745;29;1329;-87
2024/01/21 00:25:04;;;;;;;1.70;0.90;;;;;;;5.43;31.52;101907.94;677631;29;1644;-86
2024/01/21 00:25:24;;;;;;;1.80;0.90;;;;;;;5.45;31.73;101906.34;674992;29;1194;-86
2024/01/21 00:25:45;;;;;;;0.70;0.70;;;;;;;5.42;31.34;101907.81;677665;29;1586;-87
2024/01/21 00:26:05;;;;;;;0.70;0.70;;;;;;;5.41;31.34;101898.25;680229;29;1142;-87
2024/01/21 00:26:26;;;;;;;0.60;0.60;;;;;;;5.44;31.58;101907.13;680335;29;1205;-87
2024/01/21 00:26:47;;;;;;;2.20;1.00;;;;;;;5.47;31.60;101906.44;677889;29;761;-87
2024/01/21 00:27:07;;;;;;;2.50;1.10;;;;;;;5.48;31.07;101906.53;677605;29;1557;-88
2024/01/21 00:27:28;;;;;;;2.50;1.10;;;;;;;5.47;31.22;101902.16;680371;29;1230;-86
2024/01/21 00:27:49;;;;;;;1.40;0.80;;;;;;;5.51;31.58;101897.19;674696;29;1464;-87
2024/01/21 00:28:09;;;;;;;1.10;0.80;;;;;;;5.50;31.29;101898.88;675060;29;1173;-87
2024/01/21 00:28:30;;;;;;;1.30;0.88;;;;;;;5.53;31.13;101905.94;675317;29;964;-86
2024/01/21 00:28:50;;;;;;;0.80;0.70;;;;;;;5.50;31.00;101895.38;675292;29;733;-87
2024/01/21 00:29:11;;;;;;;0.97;0.77;;;;;;;5.55;31.25;101906.94;674947;29;1144;-87
2024/01/21 00:29:32;;;;;;;0.90;0.65;;;;;;;5.45;30.90;101900.25;675201;29;1052;-87
2024/01/21 00:29:52;;;;;;;0.98;0.82;;;;;;;5.37;30.36;101893.66;672562;29;1220;-87
2024/01/21 00:30:13;;;;;;;0.80;0.80;;;;;;;5.44;30.54;101891.59;673214;29;1396;-87
2024/01/21 00:30:33;;;;;;;1.30;0.90;;;;;;;5.50;30.22;101905.72;672499;29;1133;-86
2024/01/21 00:30:54;;;;;;;1.30;0.90;;;;;;;5.50;30.19;101900.53;672496;29;1375;-87
2024/01/21 00:31:14;;;;;;;1.40;1.00;;;;;;;5.55;30.39;101894.00;673728;29;1219;-87
2024/01/21 00:31:36;;;;;;;1.90;1.00;;;;;;;5.52;30.80;101884.31;675020;29;1691;-87
2024/01/21 00:31:56;;;;;;;1.70;0.75;;;;;;;5.57;30.41;101892.41;676155;29;1397;-87
2024/01/21 00:32:17;;;;;;;1.70;0.70;;;;;;;5.56;30.49;101890.59;675944;29;1107;-87
2024/01/21 00:32:37;;;;;;;0.60;0.50;;;;;;;5.55;30.34;101900.09;677518;29;1434;-86
2024/01/21 00:32:58;;;;;;;0.67;0.67;;;;;;;5.52;30.25;101894.69;674663;29;1538;-86
2024/01/21 00:33:20;;;;;;;0.70;0.60;;;;;;;5.52;30.16;101891.22;677434;29;1121;-87
2024/01/21 00:33:40;;;;;;;0.98;0.77;;;;;;;5.52;30.43;101894.69;677768;29;957;-86
2024/01/21 00:34:01;;;;;;;1.20;0.80;;;;;;;5.55;30.32;101894.00;683083;29;1360;-85
2024/01/21 00:34:22;;;;;;;1.20;0.80;;;;;;;5.55;30.63;101888.81;682897;29;1252;-87
2024/01/21 00:34:43;;;;;;;1.30;0.80;;;;;;;5.53;30.61;101891.28;680533;29;960;-87
2024/01/21 00:35:04;;;;;;;0.90;0.80;;;;;;;5.53;30.69;101891.28;675254;29;971;-86
2024/01/21 00:35:25;;;;;;;1.08;0.77;;;;;;;5.54;30.81;101892.22;680128;29;1902;-86
2024/01/21 00:35:45;;;;;;;0.80;0.60;;;;;;;5.47;30.91;101881.44;680560;29;866;-86
2024/01/21 00:36:08;;;;;;;0.77;0.68;;;;;;;5.51;30.57;101881.66;680034;29;1240;-86
2024/01/21 00:36:28;;;;;;;0.60;0.60;;;;;;;5.43;31.09;101879.44;672548;29;1336;-86
2024/01/21 00:36:49;;;;;;;0.70;0.70;;;;;;;5.45;30.72;101876.94;675237;29;1294;-87
2024/01/21 00:37:09;;;;;;;0.60;0.50;;;;;;;5.37;30.49;101873.84;672417;29;1227;-87
2024/01/21 00:37:30;;;;;;;0.70;0.60;;;;;;;5.42;30.32;101885.44;672511;29;1404;-87
2024/01/21 00:37:51;;;;;;;0.70;0.60;;;;;;;5.42;30.35;101881.94;677296;29;1321;-86
2024/01/21 00:38:11;;;;;;;0.77;0.70;;;;;;;5.37;29.70;101878.13;674801;29;1580;-86
2024/01/21 00:38:32;;;;;;;0.70;0.60;;;;;;;5.34;29.33;101871.06;676659;29;1333;-86
2024/01/21 00:38:52;;;;;;;0.60;0.57;;;;;;;5.39;29.55;101872.25;677839;29;804;-86
2024/01/21 00:39:13;;;;;;;0.80;0.70;;;;;;;5.42;29.19;101869.91;679217;29;1273;-87
2024/01/21 00:39:34;;;;;;;0.80;0.70;;;;;;;5.40;28.56;101873.16;677134;29;1235;-86
2024/01/21 00:39:54;;;;;;;0.80;0.70;;;;;;;5.46;28.41;101863.22;680502;29;709;-86
2024/01/21 00:40:15;;;;;;;0.60;0.55;;;;;;;5.51;28.88;101864.41;676451;29;1245;-87
2024/01/21 00:40:35;;;;;;;0.60;0.60;;;;;;;5.50;28.33;101864.28;675171;29;1081;-87
2024/01/21 00:40:56;;;;;;;0.60;0.60;;;;;;;5.53;28.56;101865.41;678410;29;909;-87
2024/01/21 00:41:17;;;;;;;0.68;0.68;;;;;;;5.50;27.99;101859.13;681287;29;1313;-87
2024/01/21 00:41:38;;;;;;;0.70;0.70;;;;;;;5.54;28.08;101855.94;677004;29;1596;-86
2024/01/21 00:41:59;;;;;;;0.60;0.60;;;;;;;5.58;28.33;101857.97;683327;29;978;-87
2024/01/21 00:42:19;;;;;;;0.80;0.60;;;;;;;5.63;28.37;101866.91;685018;28;1386;-86
2024/01/21 00:42:40;;;;;;;0.80;0.70;;;;;;;5.60;28.62;101862.44;682695;29;1109;-86
2024/01/21 00:43:00;;;;;;;0.80;0.80;;;;;;;5.60;28.58;101853.78;680346;29;1002;-87
2024/01/21 00:43:21;;;;;;;0.90;0.80;;;;;;;5.68;28.74;101862.94;681548;29;1142;-87
2024/01/21 00:43:42;;;;;;;0.80;0.60;;;;;;;5.67;28.69;101863.75;681118;29;1422;-88
2024/01/21 00:44:02;;;;;;;0.82;0.68;;;;;;;5.67;28.59;101858.56;678951;29;1231;-87
2024/01/21 00:44:23;;;;;;;0.60;0.60;;;;;;;5.59;28.66;101849.41;675451;29;1230;-88
2024/01/21 00:44:44;;;;;;;0.70;0.70;;;;;;;5.65;28.71;101849.78;680076;29;1405;-87
2024/01/21 00:45:05;;;;;;;2.60;0.70;;;;;;;5.65;28.33;101860.13;678793;29;1007;-87
2024/01/21 00:45:26;;;;;;;2.70;0.70;;;;;;;5.69;28.64;101849.19;678406;29;1013;-87
2024/01/21 00:45:46;;;;;;;2.70;0.70;;;;;;;5.66;28.52;101850.69;673480;29;1531;-87
2024/01/21 00:46:07;;;;;;;0.60;0.60;;;;;;;5.65;28.76;101847.19;671232;29;893;-86
2024/01/21 00:46:29;;;;;;;0.60;0.50;;;;;;;5.74;29.12;101852.09;678120;29;1441;-87
2024/01/21 00:46:50;;;;;;;0.60;0.50;;;;;;;5.68;29.03;101844.81;676018;29;1103;-87
2024/01/21 00:47:11;;;;;;;0.70;0.70;;;;;;;5.70;29.04;101843.22;676273;29;1249;-86
2024/01/21 00:47:32;;;;;;;0.70;0.70;;;;;;;5.71;29.08;101845.00;673097;29;1160;-86
2024/01/21 00:47:52;;;;;;;0.63;0.63;;;;;;;5.72;29.06;101845.91;677527;29;1431;-87
2024/01/21 00:48:13;;;;;;;0.68;0.68;;;;;;;5.73;29.10;101847.69;675643;29;1201;-86
2024/01/21 00:48:34;;;;;;;0.70;0.70;;;;;;;5.70;29.00;101840.63;675160;29;1111;-87
2024/01/21 00:48:55;;;;;;;0.70;0.70;;;;;;;5.80;28.91;101856.75;675320;29;1288;-86
2024/01/21 00:49:16;;;;;;;0.60;0.60;;;;;;;5.81;29.02;101855.97;673799;29;1132;-87
2024/01/21 00:49:40;;;;;;;0.80;0.70;;;;;;;5.74;28.91;101841.72;680273;29;1092;-87
2024/01/21 00:50:03;;;;;;;0.80;0.60;;;;;;;5.73;29.27;101840.84;675049;29;1439;-86
2024/01/21 00:50:23;;;;;;;1.25;0.82;;;;;;;5.80;29.07;101854.16;675979;29;1158;-86
2024/01/21 00:50:44;;;;;;;1.40;0.90;;;;;;;5.74;29.08;101840.03;676127;29;1513;-87
2024/01/21 00:51:04;;;;;;;1.40;1.00;;;;;;;5.81;29.15;101853.38;677582;29;1007;-87
2024/01/21 00:51:25;;;;;;;0.80;0.80;;;;;;;5.75;29.28;101833.16;679782;29;1122;-87
2024/01/21 00:51:45;;;;;;;0.70;0.70;;;;;;;5.75;29.00;101847.00;677831;29;808;-87
2024/01/21 00:52:06;;;;;;;0.60;0.50;;;;;;;5.83;29.59;101846.63;672357;29;1725;-86
2024/01/21 00:52:27;;;;;;;0.70;0.57;;;;;;;5.78;29.42;101838.56;677682;29;1213;-87
2024/01/21 00:52:48;;;;;;;0.80;0.80;;;;;;;5.79;29.31;101839.44;677745;29;905;-87
2024/01/21 00:53:08;;;;;;;0.80;0.80;;;;;;;5.73;28.71;101838.25;676938;29;1644;-87
2024/01/21 00:53:29;;;;;;;1.07;0.90;;;;;;;5.77;28.58;101839.31;672422;29;1182;-87
2024/01/21 00:53:49;;;;;;;1.10;0.80;;;;;;;5.78;28.27;101845.41;675025;29;1228;-87
2024/01/21 00:54:10;;;;;;;1.10;0.90;;;;;;;5.79;27.65;101842.00;679597;29;1854;-85
2024/01/21 00:54:32;;;;;;;0.70;0.70;;;;;;;5.80;28.04;101838.63;672397;29;1849;-87
2024/01/21 00:54:53;;;;;;;0.70;0.70;;;;;;;5.79;28.08;101834.25;675127;29;1050;-86
2024/01/21 00:55:13;;;;;;;1.10;1.00;;;;;;;5.85;27.88;101838.16;673130;29;1911;-87
2024/01/21 00:55:34;;;;;;;1.10;1.00;;;;;;;5.80;27.46;101838.63;677519;29;1202;-87
2024/01/21 00:55:55;;;;;;;1.00;0.90;;;;;;;5.80;27.53;101831.75;677352;29;1606;-86
2024/01/21 00:56:15;;;;;;;0.60;0.50;;;;;;;5.84;27.75;101836.31;677419;29;1265;-87
2024/01/21 00:56:36;;;;;;;0.60;0.53;;;;;;;5.86;27.68;101839.94;677609;29;1114;-87
2024/01/21 00:56:57;;;;;;;1.40;0.90;;;;;;;5.80;27.18;101838.63;680194;29;792;-87
2024/01/21 00:57:17;;;;;;;1.40;0.90;;;;;;;5.79;27.02;101832.56;679937;29;1085;-86
2024/01/21 00:57:38;;;;;;;1.40;0.90;;;;;;;5.86;27.15;101841.63;677075;29;1185;-87
2024/01/21 00:57:58;;;;;;;0.60;0.60;;;;;;;5.86;27.50;101837.34;675077;29;1523;-87
2024/01/21 00:58:19;;;;;;;0.70;0.70;;;;;;;5.85;27.13;101838.16;675539;29;1200;-87
2024/01/21 00:58:39;;;;;;;0.97;0.60;;;;;;;5.83;27.02;101836.25;674971;29;1188;-87
2024/01/21 00:59:00;;;;;;;1.00;0.60;;;;;;;5.84;26.42;101843.22;675117;29;879;-86
2024/01/21 00:59:20;;;;;;;1.00;0.60;;;;;;;5.88;26.97;101842.59;676723;29;1275;-86
2024/01/21 00:59:42;;;;;;;0.60;0.60;;;;;;;5.89;27.40;101839.22;677637;29;1269;-86
2024/01/21 01:00:04;;;;;;;0.60;0.60;;;;;;;5.95;27.45;101849.09;676713;29;1101;-86
2024/01/21 01:00:27;;;;;;;0.70;0.70;;;;;;;5.95;27.56;101839.63;677417;29;1158;-86
2024/01/21 01:00:47;;;;;;;0.60;0.60;;;;;;;5.97;27.92;101842.31;677398;29;1711;-86
2024/01/21 01:01:08;;;;;;;0.60;0.60;;;;;;;5.97;27.88;101845.81;674698;29;1108;-86
2024/01/21 01:01:29;;;;;;;0.60;0.50;;;;;;;5.93;27.77;101840.31;675005;29;1092;-87
2024/01/21 01:01:49;;;;;;;0.70;0.60;;;;;;;5.94;27.61;101845.59;677599;29;1233;-86
2024/01/21 01:02:10;;;;;;;0.70;0.60;;;;;;;5.91;27.76;101836.72;677354;29;1179;-87
2024/01/21 01:02:31;;;;;;;0.77;0.65;;;;;;;5.92;27.92;101842.03;677590;29;1496;-87
2024/01/21 01:02:52;;;;;;;0.60;0.60;;;;;;;5.89;27.79;101844.41;677615;29;1625;-87
2024/01/21 01:03:12;;;;;;;18.15;0.90;;;;;;;5.95;27.74;101844.78;674740;29;1367;-86
2024/01/21 01:03:34;;;;;;;18.10;0.90;;;;;;;5.95;27.66;101834.44;677539;29;1050;-86
2024/01/21 01:03:55;;;;;;;18.10;0.80;;;;;;;5.98;28.07;101833.75;677588;29;1160;-86
2024/01/21 01:04:15;;;;;;;0.60;0.50;;;;;;;5.97;28.19;101838.03;677451;29;1060;-87
2024/01/21 01:04:36;;;;;;;0.63;0.52;;;;;;;5.97;27.67;101832.88;677656;29;1145;-87
2024/01/21 01:04:57;;;;;;;1.00;0.80;;;;;;;6.04;28.36;101826.38;676903;29;884;-87
2024/01/21 01:05:17;;;;;;;1.00;0.80;;;;;;;6.03;28.02;101833.22;674756;29;1212;-87
2024/01/21 01:05:38;;;;;;;1.00;0.83;;;;;;;6.01;28.23;101821.88;677626;29;1170;-87
2024/01/21 01:05:59;;;;;;;0.70;0.70;;;;;;;6.03;27.82;101833.22;675075;29;1246;-87
2024/01/21 01:06:19;;;;;;;0.70;0.70;;;;;;;6.09;28.48;101831.84;676273;29;1323;-87
2024/01/21 01:06:40;;;;;;;0.60;0.50;;;;;;;6.07;27.77;101828.25;674958;29;1295;-87
2024/01/21 01:07:01;;;;;;;0.60;0.50;;;;;;;6.08;27.43;101830.91;672450;29;1156;-86
2024/01/21 01:07:21;;;;;;;0.60;0.60;;;;;;;6.08;26.97;101830.03;677334;29;1273;-87
2024/01/21 01:07:42;;;;;;;0.70;0.70;;;;;;;6.12;27.22;101832.94;676988;29;1329;-87
2024/01/21 01:08:02;;;;;;;0.80;0.80;;;;;;;6.10;26.88;101828.44;673161;29;1083;-87
2024/01/21 01:08:23;;;;;;;0.85;0.85;;;;;;;6.13;26.94;101831.22;677453;29;1131;-87
2024/01/21 01:08:44;;;;;;;1.10;1.00;;;;;;;6.09;27.33;101824.97;677707;29;805;-87
2024/01/21 01:09:07;;;;;;;1.00;0.90;;;;;;;6.08;26.82;101825.75;675011;29;1112;-86
2024/01/21 01:09:28;;;;;;;0.90;0.80;;;;;;;6.05;26.35;101824.66;676990;29;1467;-87
2024/01/21 01:09:49;;;;;;;0.70;0.68;;;;;;;6.08;26.86;101830.03;677026;29;867;-87
2024/01/21 01:10:09;;;;;;;0.80;0.80;;;;;;;6.10;26.75;101820.66;675021;29;1317;-86
2024/01/21 01:10:30;;;;;;;1.00;0.90;;;;;;;6.12;27.01;101819.97;677613;29;1007;-86
2024/01/21 01:10:50;;;;;;;1.00;0.80;;;;;;;6.15;27.21;101821.88;680263;29;872;-86
2024/01/21 01:11:11;;;;;;;1.00;0.70;;;;;;;6.12;27.37;101813.88;679924;29;1322;-86
2024/01/21 01:11:32;;;;;;;0.60;0.50;;;;;;;6.09;27.47;101811.09;673167;29;1414;-86
2024/01/21 01:11:52;;;;;;;0.60;0.60;;;;;;;6.12;27.47;101814.78;675481;29;1303;-87
2024/01/21 01:12:13;;;;;;;0.60;0.60;;;;;;;6.15;27.74;101814.09;675832;29;1305;-86
2024/01/21 01:12:34;;;;;;;0.80;0.80;;;;;;;6.16;27.50;101821.06;677591;29;1091;-87
2024/01/21 01:12:55;;;;;;;0.70;0.70;;;;;;;6.14;27.50;101823.53;677568;29;1625;-87
2024/01/21 01:13:16;;;;;;;0.68;0.65;;;;;;;6.08;26.72;101814.50;677225;29;1282;-87
2024/01/21 01:13:36;;;;;;;0.60;0.60;;;;;;;6.10;26.36;101823.25;677577;29;1221;-87
2024/01/21 01:13:57;;;;;;;1.30;0.90;;;;;;;6.14;26.73;101820.06;678046;29;871;-87
2024/01/21 01:14:18;;;;;;;1.30;0.90;;;;;;;6.20;26.77;101820.44;682685;28;1233;-87
2024/01/21 01:14:42;;;;;;;1.33;0.93;;;;;;;6.26;27.07;101814.75;681119;29;1226;-87
2024/01/21 01:15:03;;;;;;;0.80;0.70;;;;;;;6.29;27.25;101815.84;680028;29;1749;-86
2024/01/21 01:15:24;;;;;;;0.90;0.80;;;;;;;6.32;27.13;101817.72;679591;29;1991;-87
2024/01/21 01:15:44;;;;;;;0.70;0.67;;;;;;;6.26;27.50;101813.03;677595;29;1263;-87
2024/01/21 01:16:06;;;;;;;0.70;0.70;;;;;;;6.31;27.45;101813.34;677602;29;1015;-87
2024/01/21 01:16:27;;;;;;;0.60;0.60;;;;;;;6.28;27.51;101806.25;680177;29;1309;-87
2024/01/21 01:16:47;;;;;;;0.70;0.70;;;;;;;6.27;27.18;101807.06;680211;29;1301;-87
2024/01/21 01:17:08;;;;;;;0.90;0.80;;;;;;;6.30;27.51;101812.44;674076;29;1419;-86
2024/01/21 01:17:29;;;;;;;0.90;0.80;;;;;;;6.28;27.57;101808.84;674987;29;1260;-87
2024/01/21 01:17:51;;;;;;;0.80;0.70;;;;;;;6.29;27.29;101804.56;676954;29;1208;-87
2024/01/21 01:18:13;;;;;;;0.60;0.60;;;;;;;6.23;26.86;101807.69;677368;29;1257;-87
2024/01/21 01:18:34;;;;;;;0.65;0.65;;;;;;;6.09;26.29;101805.91;672374;29;1393;-87
2024/01/21 01:18:55;;;;;;;2.10;0.93;;;;;;;6.14;26.35;101799.34;672359;29;763;-86
2024/01/21 01:19:15;;;;;;;2.10;1.00;;;;;;;6.18;26.71;101800.44;677349;29;1338;-87
2024/01/21 01:19:36;;;;;;;2.20;1.10;;;;;;;6.32;26.68;101814.25;679892;29;1026;-87
2024/01/21 01:19:57;;;;;;;0.90;0.90;;;;;;;6.30;26.86;101814.13;677956;29;1207;-87
2024/01/21 01:20:17;;;;;;;1.13;1.02;;;;;;;6.33;27.05;101806.56;676309;29;1550;-87
2024/01/21 01:20:38;;;;;;;1.20;1.10;;;;;;;6.31;27.22;101797.78;677666;29;851;-86
2024/01/21 01:20:58;;;;;;;1.50;1.10;;;;;;;6.26;27.16;101800.09;675047;29;837;-85
2024/01/21 01:21:19;;;;;;;1.35;0.90;;;;;;;6.22;26.68;101807.59;677113;29;1401;-87
2024/01/21 01:21:40;;;;;;;1.55;0.70;;;;;;;6.16;26.07;101798.59;677411;29;1294;-87
2024/01/21 01:22:01;;;;;;;1.10;0.70;;;;;;;6.17;25.58;101804.69;673590;29;897;-86
2024/01/21 01:22:21;;;;;;;0.70;0.55;;;;;;;6.12;25.49;101801.81;674853;29;1241;-87
2024/01/21 01:22:42;;;;;;;0.60;0.60;;;;;;;6.14;25.49;101791.56;673586;29;853;-87
2024/01/21 01:23:04;;;;;;;0.60;0.60;;;;;;;6.19;25.39;101802.22;677543;29;1058;-86
2024/01/21 01:23:24;;;;;;;0.90;0.90;;;;;;;6.26;25.32;101800.09;677821;29;1370;-87
2024/01/21 01:23:44;;;;;;;0.80;0.80;;;;;;;6.25;25.50;101800.91;677417;29;1236;-87
2024/01/21 01:24:05;;;;;;;0.88;0.88;;;;;;;6.25;25.45;101794.78;675019;29;1051;-86
2024/01/21 01:24:26;;;;;;;1.10;0.70;;;;;;;6.35;25.53;101804.06;677210;29;1304;-87
2024/01/21 01:24:46;;;;;;;1.10;0.70;;;;;;;6.25;25.05;101799.97;677660;29;816;-87
2024/01/21 01:25:07;;;;;;;1.20;0.73;;;;;;;6.35;25.23;101807.56;674740;29;1217;-86
2024/01/21 01:25:28;;;;;;;0.80;0.80;;;;;;;6.31;25.13;101797.78;672264;29;1150;-87
2024/01/21 01:25:49;;;;;;;0.80;0.80;;;;;;;6.28;25.16;101789.81;678396;29;1216;-87
2024/01/21 01:26:09;;;;;;;1.08;0.90;;;;;;;6.22;25.11;101798.13;682073;28;1070;-88
2024/01/21 01:26:30;;;;;;;1.10;0.90;;;;;;;6.29;24.84;101792.53;684919;28;1258;-86
2024/01/21 01:26:50;;;;;;;1.10;0.90;;;;;;;6.43;25.42;101808.00;682639;28;1473;-87
2024/01/21 01:27:11;;;;;;;0.60;0.60;;;;;;;6.37;25.86;101797.25;680058;29;1236;-86
2024/01/21 01:27:32;;;;;;;0.60;0.60;;;;;;;6.40;25.93;101803.53;680979;29;1276;-86
2024/01/21 01:27:52;;;;;;;0.60;0.60;;;;;;;6.39;25.65;101800.84;679708;29;725;-87
2024/01/21 01:28:13;;;;;;;0.60;0.50;;;;;;;6.44;25.43;101802.03;682627;28;959;-87
2024/01/21 01:28:34;;;;;;;0.90;0.70;;;;;;;6.37;25.66;101802.44;681912;29;1382;-86
2024/01/21 01:28:54;;;;;;;0.90;0.70;;;;;;;6.41;26.09;101794.06;680205;29;1323;-87
2024/01/21 01:29:15;;;;;;;0.90;0.77;;;;;;;6.42;26.62;101790.66;679031;29;1106;-87
2024/01/21 01:29:35;;;;;;;0.70;0.63;;;;;;;6.43;26.60;101798.56;677430;29;1194;-87
2024/01/21 01:29:56;;;;;;;1.40;0.80;;;;;;;6.32;26.63;101788.31;676620;29;1399;-86
2024/01/21 01:30:17;;;;;;;1.40;0.80;;;;;;;6.30;26.20;101786.53;672152;29;1159;-88
2024/01/21 01:30:37;;;;;;;0.95;0.55;;;;;;;6.35;25.79;101791.09;677372;29;1195;-86
2024/01/21 01:30:58;;;;;;;0.60;0.50;;;;;;;6.32;25.47;101788.31;674931;29;1375;-88
2024/01/21 01:31:20;;;;;;;0.70;0.70;;;;;;;6.36;25.96;101800.66;680037;29;1113;-87
2024/01/21 01:31:42;;;;;;;0.70;0.70;;;;;;;6.38;26.14;101797.34;677575;29;939;-87
2024/01/21 01:32:05;;;;;;;0.88;0.85;;;;;;;6.40;26.11;101794.88;675291;29;1078;-86
2024/01/21 01:32:26;;;;;;;0.80;0.80;;;;;;;6.44;26.21;101789.06;677182;29;1324;-87
2024/01/21 01:32:46;;;;;;;0.80;0.80;;;;;;;6.45;26.46;101785.69;672444;29;801;-87
2024/01/21 01:33:07;;;;;;;0.80;0.60;;;;;;;6.45;26.47;101785.69;672495;29;1011;-86
2024/01/21 01:33:28;;;;;;;0.80;0.80;;;;;;;6.47;26.47;101798.72;677580;29;1254;-86
2024/01/21 01:33:49;;;;;;;0.80;0.80;;;;;;;6.42;26.54;101777.69;675018;29;1257;-87
2024/01/21 01:34:11;;;;;;;0.70;0.70;;;;;;;6.39;25.91;101795.69;676185;29;1256;-86
2024/01/21 01:34:31;;;;;;;0.60;0.60;;;;;;;6.46;26.17;101787.47;677541;29;992;-87
2024/01/21 01:34:55;;;;;;;0.60;0.60;;;;;;;6.47;25.87;101789.25;677556;29;1276;-87
2024/01/21 01:35:16;;;;;;;0.70;0.70;;;;;;;6.47;26.38;101789.25;676161;29;1911;-87
2024/01/21 01:35:36;;;;;;;1.40;1.10;;;;;;;6.43;25.96;101787.25;680388;29;1183;-87
2024/01/21 01:35:57;;;;;;;1.80;1.40;;;;;;;6.43;25.89;101797.63;682792;28;1189;-87
2024/01/21 01:36:18;;;;;;;1.80;1.30;;;;;;;6.44;26.24;101787.38;679731;29;1425;-86
2024/01/21 01:36:39;;;;;;;1.10;0.80;;;;;;;6.47;26.23;101789.25;680181;29;879;-87
2024/01/21 01:36:59;;;;;;;0.70;0.50;;;;;;;6.49;26.40;101791.94;679902;29;1184;-87
2024/01/21 01:37:21;;;;;;;0.80;0.60;;;;;;;6.45;25.92;101785.69;679874;29;1160;-86
2024/01/21 01:37:42;;;;;;;0.80;0.70;;;;;;;6.44;25.83;101782.19;676899;29;1258;-86
2024/01/21 01:38:05;;;;;;;0.82;0.73;;;;;;;6.45;25.75;101780.50;672251;29;1221;-86
2024/01/21 01:38:26;;;;;;;0.90;0.80;;;;;;;6.55;26.10;101793.22;674799;29;1309;-86
2024/01/21 01:38:47;;;;;;;0.85;0.75;;;;;;;6.48;26.20;101778.09;674911;29;840;-87
2024/01/21 01:39:07;;;;;;;0.60;0.60;;;;;;;6.48;26.46;101778.09;677376;29;1331;-87
2024/01/21 01:39:28;;;;;;;0.70;0.70;;;;;;;6.52;26.38;101787.81;674947;29;1173;-86
2024/01/21 01:39:48;;;;;;;0.70;0.70;;;;;;;6.48;26.11;101785.88;677476;29;737;-87
2024/01/21 01:40:09;;;;;;;0.70;0.70;;;;;;;6.53;26.41;101783.53;677754;29;1095;-87
2024/01/21 01:40:30;;;;;;;0.80;0.80;;;;;;;6.48;26.06;101787.53;674854;29;1269;-86
2024/01/21 01:40:50;;;;;;;2.40;1.10;;;;;;;6.50;26.36;101776.47;680016;29;1165;-87
2024/01/21 01:41:11;;;;;;;2.40;1.08;;;;;;;6.48;25.99;101785.88;674647;29;1189;-86
2024/01/21 01:41:31;;;;;;;2.30;1.00;;;;;;;6.45;25.70;101780.50;672356;29;1209;-86
2024/01/21 01:41:52;;;;;;;0.80;0.67;;;;;;;6.42;25.81;101780.28;674740;29;1312;-86
2024/01/21 01:42:13;;;;;;;1.00;0.80;;;;;;;6.41;25.44;101788.88;676657;29;1290;-86